Costa Serena — ICAZ — position and weather

sailwx.info

Track history (hours):
 
Tides and Currents Weather Stations Pressure Air Temp Water Temp Dewpoint Dewpoint Depression Visibility Wind Speed Wind Dir Waves Ship Positions

Costa Serena

Last reported at 2019-Aug-22 22:12 UTC. Time now 2019-Aug-24 07:23 UTC.
Position N 37°59' E 122°16'.

Length 290 m; draft 8.3 m.

Type: Ship. MMSI: 247187600.

Date/timePositionNaut miles runAvg speedWind from/ knotsBaromVisibWave heightAir tempDewpointWater temp
2019-Aug-22 22:12N 37°59' E 122°16'1120.7
2019-Aug-22 21:40N 38°02' E 122°02'520.4
2019-Aug-22 21:24N 38°03' E 121°55'1220.3
2019-Aug-22 20:48N 38°07' E 121°41'719.9
2019-Aug-22 20:27N 38°10' E 121°33'2719.6
2019-Aug-22 19:03N 38°27' E 121°05'715.1
2019-Aug-22 18:34N 38°31' E 120°57'211.2
2019-Aug-22 18:22N 38°32' E 120°55'410.4
2019-Aug-22 18:00N 38°33' E 120°50'611.3
2019-Aug-22 17:30N 38°35' E 120°43'3620.0
2019-Aug-22 15:40N 38°40' E 119°57'620.3
2019-Aug-22 15:24N 38°41' E 119°50'820.3
2019-Aug-22 15:00N 38°41' E 119°40'1020.3
2019-Aug-22 14:30N 38°43' E 119°27'1020.4
2019-Aug-22 14:00N 38°44' E 119°14'2820.3
2019-Aug-22 12:37N 38°48' E 118°38'40 5.0
2019-Aug-22 04:39N 38°59' E 117°49'0 0.0
2019-Aug-22 04:30N 38°59' E 117°49'0 0.0
2019-Aug-22 02:41N 38°59' E 117°49'0 0.0
2019-Aug-22 02:29N 38°59' E 117°49'0 0.0
2019-Aug-22 02:00N 38°59' E 117°49'2 3.7
2019-Aug-22 01:29N 38°58' E 117°51'613.2
2019-Aug-22 00:59N 38°57' E 117°59'712.9
2019-Aug-22 00:27N 38°55' E 118°08'2314.1
2019-Aug-21 22:47N 38°50' E 118°37'516.0
2019-Aug-21 22:27N 38°49' E 118°44'918.1
2019-Aug-21 21:59N 38°47' E 118°55'919.9
2019-Aug-21 21:30N 38°47' E 119°07'1019.7
2019-Aug-21 21:01N 38°46' E 119°19'1019.9
2019-Aug-21 20:31N 38°44' E 119°32'1019.9
2019-Aug-21 20:01N 38°43' E 119°45'1019.9
2019-Aug-21 19:31N 38°42' E 119°57'1019.9
2019-Aug-21 19:01N 38°41' E 120°10'1019.9
2019-Aug-21 18:30N 38°40' E 120°23'1019.7
2019-Aug-21 18:01N 38°39' E 120°35'917.2
2019-Aug-21 17:30N 38°38' E 120°46'510.8
2019-Aug-21 17:00N 38°37' E 120°53'612.1
2019-Aug-21 16:31N 38°34' E 121°00'714.6
2019-Aug-21 16:00N 38°31' E 121°09'917.2
2019-Aug-21 15:30N 38°27' E 121°18'1018.6
2019-Aug-21 14:58N 38°22' E 121°29'918.8
2019-Aug-21 14:30N 38°18' E 121°39'1019.0
2019-Aug-21 14:00N 38°13' E 121°49'918.9
2019-Aug-21 13:30N 38°10' E 122°00'1119.2
2019-Aug-21 12:55N 38°05' E 122°13'5619.3
2019-Aug-21 10:01N 37°39' E 123°16'118.9
2019-Aug-21 09:59N 37°38' E 123°17'  
2019-Aug-18 01:45N 37°17' E 123°28'819.6
2019-Aug-18 01:22N 37°24' E 123°24'4118.6
2019-Aug-17 23:10N 37°52' E 122°47'319.6
2019-Aug-17 23:00N 37°54' E 122°43'1019.8
2019-Aug-17 22:29N 37°57' E 122°31'2820.6
2019-Aug-17 21:08N 38°04' E 121°56'1021.1
2019-Aug-17 20:40N 38°06' E 121°44'4219.7
2019-Aug-17 18:31N 38°30' E 120°59'115.5
2019-Aug-17 18:28N 38°30' E 120°59'6715.3
2019-Aug-17 14:07N 38°42' E 119°35'317.5
2019-Aug-17 13:56N 38°43' E 119°31'917.9
2019-Aug-17 13:24N 38°44' E 119°19'717.8
2019-Aug-17 13:00N 38°45' E 119°10'13 0.8
2019-Aug-16 20:09N 38°48' E 118°53'812.1
2019-Aug-16 19:31N 38°47' E 119°03'016.9
2019-Aug-16 19:30N 38°47' E 119°03'611.7
2019-Aug-16 19:01N 38°46' E 119°11'612.0
2019-Aug-16 18:30N 38°46' E 119°19'612.1
2019-Aug-16 18:00N 38°45' E 119°26'612.2
2019-Aug-16 17:30N 38°44' E 119°34'3412.3
2019-Aug-16 14:47N 38°41' E 120°17'312.4
2019-Aug-16 14:30N 38°41' E 120°21'  
Track history (hours):
 
Tides and Currents Weather Stations Pressure Air Temp Water Temp Dewpoint Dewpoint Depression Visibility Wind Speed Wind Dir Waves Ship Positions

Costa Serena

Last reported at 2019-Aug-22 22:12 UTC. Time now 2019-Aug-24 07:23 UTC.
Position N 37°59' E 122°16'.

Length 290 m; draft 8.3 m.

Type: Ship. MMSI: 247187600.

Date/timePositionNaut miles runAvg speedWind from/ knotsBaromVisibWave heightAir tempDewpointWater temp
2019-Aug-22 22:12N 37°59' E 122°16'1120.7
2019-Aug-22 21:40N 38°02' E 122°02'520.4
2019-Aug-22 21:24N 38°03' E 121°55'1220.3
2019-Aug-22 20:48N 38°07' E 121°41'719.9
2019-Aug-22 20:27N 38°10' E 121°33'2719.6
2019-Aug-22 19:03N 38°27' E 121°05'715.1
2019-Aug-22 18:34N 38°31' E 120°57'211.2
2019-Aug-22 18:22N 38°32' E 120°55'410.4
2019-Aug-22 18:00N 38°33' E 120°50'611.3
2019-Aug-22 17:30N 38°35' E 120°43'3620.0
2019-Aug-22 15:40N 38°40' E 119°57'620.3
2019-Aug-22 15:24N 38°41' E 119°50'820.3
2019-Aug-22 15:00N 38°41' E 119°40'1020.3
2019-Aug-22 14:30N 38°43' E 119°27'1020.4
2019-Aug-22 14:00N 38°44' E 119°14'2820.3
2019-Aug-22 12:37N 38°48' E 118°38'40 5.0
2019-Aug-22 04:39N 38°59' E 117°49'0 0.0
2019-Aug-22 04:30N 38°59' E 117°49'0 0.0
2019-Aug-22 02:41N 38°59' E 117°49'0 0.0
2019-Aug-22 02:29N 38°59' E 117°49'0 0.0
2019-Aug-22 02:00N 38°59' E 117°49'2 3.7
2019-Aug-22 01:29N 38°58' E 117°51'613.2
2019-Aug-22 00:59N 38°57' E 117°59'712.9
2019-Aug-22 00:27N 38°55' E 118°08'2314.1
2019-Aug-21 22:47N 38°50' E 118°37'516.0
2019-Aug-21 22:27N 38°49' E 118°44'918.1
2019-Aug-21 21:59N 38°47' E 118°55'919.9
2019-Aug-21 21:30N 38°47' E 119°07'1019.7
2019-Aug-21 21:01N 38°46' E 119°19'1019.9
2019-Aug-21 20:31N 38°44' E 119°32'1019.9
2019-Aug-21 20:01N 38°43' E 119°45'1019.9
2019-Aug-21 19:31N 38°42' E 119°57'1019.9
2019-Aug-21 19:01N 38°41' E 120°10'1019.9
2019-Aug-21 18:30N 38°40' E 120°23'1019.7
2019-Aug-21 18:01N 38°39' E 120°35'917.2
2019-Aug-21 17:30N 38°38' E 120°46'510.8
2019-Aug-21 17:00N 38°37' E 120°53'612.1
2019-Aug-21 16:31N 38°34' E 121°00'714.6
2019-Aug-21 16:00N 38°31' E 121°09'917.2
2019-Aug-21 15:30N 38°27' E 121°18'1018.6
2019-Aug-21 14:58N 38°22' E 121°29'918.8
2019-Aug-21 14:30N 38°18' E 121°39'1019.0
2019-Aug-21 14:00N 38°13' E 121°49'918.9
2019-Aug-21 13:30N 38°10' E 122°00'1119.2
2019-Aug-21 12:55N 38°05' E 122°13'5619.3
2019-Aug-21 10:01N 37°39' E 123°16'118.9
2019-Aug-21 09:59N 37°38' E 123°17'  
2019-Aug-18 01:45N 37°17' E 123°28'819.6
2019-Aug-18 01:22N 37°24' E 123°24'4118.6
2019-Aug-17 23:10N 37°52' E 122°47'319.6
2019-Aug-17 23:00N 37°54' E 122°43'1019.8
2019-Aug-17 22:29N 37°57' E 122°31'2820.6
2019-Aug-17 21:08N 38°04' E 121°56'1021.1
2019-Aug-17 20:40N 38°06' E 121°44'4219.7
2019-Aug-17 18:31N 38°30' E 120°59'115.5
2019-Aug-17 18:28N 38°30' E 120°59'6715.3
2019-Aug-17 14:07N 38°42' E 119°35'317.5
2019-Aug-17 13:56N 38°43' E 119°31'917.9
2019-Aug-17 13:24N 38°44' E 119°19'717.8
2019-Aug-17 13:00N 38°45' E 119°10'13 0.8
2019-Aug-16 20:09N 38°48' E 118°53'812.1
2019-Aug-16 19:31N 38°47' E 119°03'016.9
2019-Aug-16 19:30N 38°47' E 119°03'611.7
2019-Aug-16 19:01N 38°46' E 119°11'612.0
2019-Aug-16 18:30N 38°46' E 119°19'612.1
2019-Aug-16 18:00N 38°45' E 119°26'612.2
2019-Aug-16 17:30N 38°44' E 119°34'3412.3
2019-Aug-16 14:47N 38°41' E 120°17'312.4
2019-Aug-16 14:30N 38°41' E 120°21'  

Dump ship's entire track history